sensor_id;sensor_type;location;lat;lon;timestamp;temperature;humidity
19728;DHT22;10015;52.530;13.390;2022-10-16T05:32:17;16.20;99.90
19728;DHT22;10015;52.530;13.390;2022-10-16T05:34:44;16.30;99.90
19728;DHT22;10015;52.530;13.390;2022-10-16T05:37:10;16.30;99.90
19728;DHT22;10015;52.530;13.390;2022-10-16T05:39:40;16.20;99.90
19728;DHT22;10015;52.530;13.390;2022-10-16T05:42:07;16.20;99.90
19728;DHT22;10015;52.530;13.390;2022-10-16T05:44:33;16.30;99.90
19728;DHT22;10015;52.530;13.390;2022-10-16T05:46:59;16.30;99.90
19728;DHT22;10015;52.530;13.390;2022-10-16T05:49:25;16.30;99.90
19728;DHT22;10015;52.530;13.390;2022-10-16T05:51:50;16.30;99.90
19728;DHT22;10015;52.530;13.390;2022-10-16T05:54:16;16.30;99.90
19728;DHT22;10015;52.530;13.390;2022-10-16T05:56:42;16.30;99.90
19728;DHT22;10015;52.530;13.390;2022-10-16T05:59:08;16.30;99.90
19728;DHT22;10015;52.530;13.390;2022-10-16T06:01:34;16.40;99.90
19728;DHT22;10015;52.530;13.390;2022-10-16T06:04:01;16.50;99.90
19728;DHT22;10015;52.530;13.390;2022-10-16T06:06:28;16.40;99.90
19728;DHT22;10015;52.530;13.390;2022-10-16T06:08:55;16.40;99.90
19728;DHT22;10015;52.530;13.390;2022-10-16T06:11:27;16.40;99.90
19728;DHT22;10015;52.530;13.390;2022-10-16T06:13:58;16.50;99.90
19728;DHT22;10015;52.530;13.390;2022-10-16T06:16:26;16.50;99.90
19728;DHT22;10015;52.530;13.390;2022-10-16T06:18:53;16.50;99.90
19728;DHT22;10015;52.530;13.390;2022-10-16T06:21:21;16.50;99.90
19728;DHT22;10015;52.530;13.390;2022-10-16T06:23:48;16.50;99.90
19728;DHT22;10015;52.530;13.390;2022-10-16T06:26:19;16.50;99.90
19728;DHT22;10015;52.530;13.390;2022-10-16T06:28:46;16.50;99.90
19728;DHT22;10015;52.530;13.390;2022-10-16T06:31:13;16.50;99.90
19728;DHT22;10015;52.530;13.390;2022-10-16T06:33:39;16.50;99.90
19728;DHT22;10015;52.530;13.390;2022-10-16T06:38:35;16.50;99.90
19728;DHT22;10015;52.530;13.390;2022-10-16T06:41:01;16.50;99.90
19728;DHT22;10015;52.530;13.390;2022-10-16T06:43:29;16.50;99.90
19728;DHT22;10015;52.530;13.390;2022-10-16T06:46:03;16.40;99.90
19728;DHT22;10015;52.530;13.390;2022-10-16T06:48:30;16.40;99.90
19728;DHT22;10015;52.530;13.390;2022-10-16T06:51:01;16.40;99.90
19728;DHT22;10015;52.530;13.390;2022-10-16T06:53:29;16.30;99.90
19728;DHT22;10015;52.530;13.390;2022-10-16T06:55:56;16.30;99.90
19728;DHT22;10015;52.530;13.390;2022-10-16T06:58:23;16.40;99.90
19728;DHT22;10015;52.530;13.390;2022-10-16T07:00:55;16.40;99.90
19728;DHT22;10015;52.530;13.390;2022-10-16T07:03:22;16.40;99.90
19728;DHT22;10015;52.530;13.390;2022-10-16T07:05:48;16.30;99.90
19728;DHT22;10015;52.530;13.390;2022-10-16T07:08:14;16.20;99.90
19728;DHT22;10015;52.530;13.390;2022-10-16T07:10:40;16.40;99.90
19728;DHT22;10015;52.530;13.390;2022-10-16T07:13:06;16.60;99.90
19728;DHT22;10015;52.530;13.390;2022-10-16T07:15:36;16.70;99.90
19728;DHT22;10015;52.530;13.390;2022-10-16T07:18:02;16.70;99.90
19728;DHT22;10015;52.530;13.390;2022-10-16T07:20:28;16.90;99.90
19728;DHT22;10015;52.530;13.390;2022-10-16T07:22:54;16.90;99.90
19728;DHT22;10015;52.530;13.390;2022-10-16T07:25:20;16.90;99.90
19728;DHT22;10015;52.530;13.390;2022-10-16T07:27:46;16.90;99.90
19728;DHT22;10015;52.530;13.390;2022-10-16T07:30:12;16.90;99.90
19728;DHT22;10015;52.530;13.390;2022-10-16T07:32:38;16.90;99.90
19728;DHT22;10015;52.530;13.390;2022-10-16T07:35:04;16.80;99.90
19728;DHT22;10015;52.530;13.390;2022-10-16T07:37:31;16.70;99.90
19728;DHT22;10015;52.530;13.390;2022-10-16T07:39:57;16.80;99.90
19728;DHT22;10015;52.530;13.390;2022-10-16T07:42:23;16.80;99.90
19728;DHT22;10015;52.530;13.390;2022-10-16T07:44:49;16.80;99.90
19728;DHT22;10015;52.530;13.390;2022-10-16T07:47:15;16.90;99.90
19728;DHT22;10015;52.530;13.390;2022-10-16T07:49:41;17.00;99.90
19728;DHT22;10015;52.530;13.390;2022-10-16T07:52:07;17.00;99.90
19728;DHT22;10015;52.530;13.390;2022-10-16T07:54:33;16.90;99.90
19728;DHT22;10015;52.530;13.390;2022-10-16T07:56:59;17.00;99.90
19728;DHT22;10015;52.530;13.390;2022-10-16T07:59:25;17.00;99.90
19728;DHT22;10015;52.530;13.390;2022-10-16T08:01:51;17.10;99.90
19728;DHT22;10015;52.530;13.390;2022-10-16T08:04:16;17.10;99.90
19728;DHT22;10015;52.530;13.390;2022-10-16T08:06:42;17.00;99.90
19728;DHT22;10015;52.530;13.390;2022-10-16T08:09:09;17.10;99.90
19728;DHT22;10015;52.530;13.390;2022-10-16T08:11:35;17.20;99.90
19728;DHT22;10015;52.530;13.390;2022-10-16T08:14:01;17.20;99.90
19728;DHT22;10015;52.530;13.390;2022-10-16T08:16:27;17.20;99.90
19728;DHT22;10015;52.530;13.390;2022-10-16T08:18:53;17.30;99.90
19728;DHT22;10015;52.530;13.390;2022-10-16T08:21:21;17.40;99.90
19728;DHT22;10015;52.530;13.390;2022-10-16T08:23:49;17.50;99.90
19728;DHT22;10015;52.530;13.390;2022-10-16T08:26:15;17.60;99.90
19728;DHT22;10015;52.530;13.390;2022-10-16T08:28:41;17.40;99.90
19728;DHT22;10015;52.530;13.390;2022-10-16T08:31:09;17.50;99.90
19728;DHT22;10015;52.530;13.390;2022-10-16T08:33:36;17.40;99.90
19728;DHT22;10015;52.530;13.390;2022-10-16T08:36:04;17.50;99.90
19728;DHT22;10015;52.530;13.390;2022-10-16T08:38:30;17.60;99.90
19728;DHT22;10015;52.530;13.390;2022-10-16T08:46:46;17.70;99.90
19728;DHT22;10015;52.530;13.390;2022-10-16T08:49:14;17.70;99.90
19728;DHT22;10015;52.530;13.390;2022-10-16T08:51:41;17.80;99.90
19728;DHT22;10015;52.530;13.390;2022-10-16T08:56:45;17.90;99.90
19728;DHT22;10015;52.530;13.390;2022-10-16T08:59:11;17.90;99.90
19728;DHT22;10015;52.530;13.390;2022-10-16T09:01:43;18.00;99.90
19728;DHT22;10015;52.530;13.390;2022-10-16T09:04:46;18.00;99.90
19728;DHT22;10015;52.530;13.390;2022-10-16T09:10:02;17.90;99.90
19728;DHT22;10015;52.530;13.390;2022-10-16T09:12:39;18.00;99.90
19728;DHT22;10015;52.530;13.390;2022-10-16T09:17:53;18.20;99.90
19728;DHT22;10015;52.530;13.390;2022-10-16T09:20:55;18.50;99.90
19728;DHT22;10015;52.530;13.390;2022-10-16T09:23:29;18.70;99.90
19728;DHT22;10015;52.530;13.390;2022-10-16T09:25:56;18.70;99.90
19728;DHT22;10015;52.530;13.390;2022-10-16T09:28:24;18.80;99.90
19728;DHT22;10015;52.530;13.390;2022-10-16T09:30:50;18.90;99.90
19728;DHT22;10015;52.530;13.390;2022-10-16T09:33:18;18.90;99.90
19728;DHT22;10015;52.530;13.390;2022-10-16T09:35:49;19.00;99.90
19728;DHT22;10015;52.530;13.390;2022-10-16T09:38:32;19.10;99.90
19728;DHT22;10015;52.530;13.390;2022-10-16T09:41:03;19.30;99.90
19728;DHT22;10015;52.530;13.390;2022-10-16T09:43:51;19.60;99.90
19728;DHT22;10015;52.530;13.390;2022-10-16T09:46:25;19.80;99.90
19728;DHT22;10015;52.530;13.390;2022-10-16T09:48:54;20.00;99.90
19728;DHT22;10015;52.530;13.390;2022-10-16T09:51:36;20.10;99.90
19728;DHT22;10015;52.530;13.390;2022-10-16T09:56:38;20.30;99.90
19728;DHT22;10015;52.530;13.390;2022-10-16T09:59:20;20.40;99.90
19728;DHT22;10015;52.530;13.390;2022-10-16T10:01:51;20.50;99.90
19728;DHT22;10015;52.530;13.390;2022-10-16T10:04:23;20.60;99.90
19728;DHT22;10015;52.530;13.390;2022-10-16T10:06:52;20.70;99.90
19728;DHT22;10015;52.530;13.390;2022-10-16T10:11:59;21.00;99.90
19728;DHT22;10015;52.530;13.390;2022-10-16T10:14:39;21.10;99.90
19728;DHT22;10015;52.530;13.390;2022-10-16T10:22:41;21.10;99.90
19728;DHT22;10015;52.530;13.390;2022-10-16T10:27:56;20.80;99.90
19728;DHT22;10015;52.530;13.390;2022-10-16T10:33:28;20.60;99.90
19728;DHT22;10015;52.530;13.390;2022-10-16T10:36:04;20.40;99.90
19728;DHT22;10015;52.530;13.390;2022-10-16T10:44:49;20.10;99.90
19728;DHT22;10015;52.530;13.390;2022-10-16T10:58:10;20.30;99.90
19728;DHT22;10015;52.530;13.390;2022-10-16T11:03:42;20.40;99.90
19728;DHT22;10015;52.530;13.390;2022-10-16T11:06:12;20.60;99.90
19728;DHT22;10015;52.530;13.390;2022-10-16T11:08:50;20.90;99.90
19728;DHT22;10015;52.530;13.390;2022-10-16T11:11:35;21.00;99.90
19728;DHT22;10015;52.530;13.390;2022-10-16T11:14:11;21.30;99.90
19728;DHT22;10015;52.530;13.390;2022-10-16T11:16:48;21.50;99.90
19728;DHT22;10015;52.530;13.390;2022-10-16T11:27:53;21.50;99.90
19728;DHT22;10015;52.530;13.390;2022-10-16T11:30:30;21.30;99.90
19728;DHT22;10015;52.530;13.390;2022-10-16T11:40:50;20.90;99.90
19728;DHT22;10015;52.530;13.390;2022-10-16T11:46:04;21.00;99.90
19728;DHT22;10015;52.530;13.390;2022-10-16T11:48:43;21.00;99.90
19728;DHT22;10015;52.530;13.390;2022-10-16T11:51:19;21.10;99.90
19728;DHT22;10015;52.530;13.390;2022-10-16T11:56:32;21.10;99.90
19728;DHT22;10015;52.530;13.390;2022-10-16T11:59:13;21.20;99.90
19728;DHT22;10015;52.530;13.390;2022-10-16T12:01:48;21.20;99.90
19728;DHT22;10015;52.530;13.390;2022-10-16T12:07:00;21.00;99.90
19728;DHT22;10015;52.530;13.390;2022-10-16T12:09:31;20.90;99.90
19728;DHT22;10015;52.530;13.390;2022-10-16T12:11:57;20.70;99.90
19728;DHT22;10015;52.530;13.390;2022-10-16T12:14:36;20.70;99.90
19728;DHT22;10015;52.530;13.390;2022-10-16T12:17:27;20.80;99.90
19728;DHT22;10015;52.530;13.390;2022-10-16T12:22:48;21.40;99.90
19728;DHT22;10015;52.530;13.390;2022-10-16T12:25:35;21.70;99.90
19728;DHT22;10015;52.530;13.390;2022-10-16T12:28:04;21.90;99.90
19728;DHT22;10015;52.530;13.390;2022-10-16T12:30:34;22.00;99.90
19728;DHT22;10015;52.530;13.390;2022-10-16T12:33:06;22.00;99.90
19728;DHT22;10015;52.530;13.390;2022-10-16T12:35:43;22.10;99.90
19728;DHT22;10015;52.530;13.390;2022-10-16T12:38:35;22.30;99.90
19728;DHT22;10015;52.530;13.390;2022-10-16T12:41:07;22.40;99.90
19728;DHT22;10015;52.530;13.390;2022-10-16T12:43:41;22.50;99.90
19728;DHT22;10015;52.530;13.390;2022-10-16T12:48:41;22.80;99.90
19728;DHT22;10015;52.530;13.390;2022-10-16T12:54:34;23.10;99.90
19728;DHT22;10015;52.530;13.390;2022-10-16T13:03:34;23.20;99.90
19728;DHT22;10015;52.530;13.390;2022-10-16T13:09:00;23.30;99.90
19728;DHT22;10015;52.530;13.390;2022-10-16T13:28:32;23.40;99.90
19728;DHT22;10015;52.530;13.390;2022-10-16T13:31:00;23.20;99.90
19728;DHT22;10015;52.530;13.390;2022-10-16T13:33:45;23.00;99.90
19728;DHT22;10015;52.530;13.390;2022-10-16T13:36:42;22.70;99.90
19728;DHT22;10015;52.530;13.390;2022-10-16T13:42:01;22.50;99.90
19728;DHT22;10015;52.530;13.390;2022-10-16T13:44:35;22.60;99.90
19728;DHT22;10015;52.530;13.390;2022-10-16T13:47:02;22.80;99.90
19728;DHT22;10015;52.530;13.390;2022-10-16T13:49:33;22.70;99.90
19728;DHT22;10015;52.530;13.390;2022-10-16T13:52:00;22.70;99.90
19728;DHT22;10015;52.530;13.390;2022-10-16T13:54:27;22.70;99.90
19728;DHT22;10015;52.530;13.390;2022-10-16T13:56:54;22.70;99.90
19728;DHT22;10015;52.530;13.390;2022-10-16T13:59:35;22.50;99.90
19728;DHT22;10015;52.530;13.390;2022-10-16T14:02:53;22.50;99.90
19728;DHT22;10015;52.530;13.390;2022-10-16T14:05:04;22.50;99.90
19728;DHT22;10015;52.530;13.390;2022-10-16T14:07:34;22.20;99.90
19728;DHT22;10015;52.530;13.390;2022-10-16T14:10:25;22.30;99.90
19728;DHT22;10015;52.530;13.390;2022-10-16T14:13:05;22.20;99.90
19728;DHT22;10015;52.530;13.390;2022-10-16T14:15:33;22.10;99.90
19728;DHT22;10015;52.530;13.390;2022-10-16T14:18:00;22.10;99.90
19728;DHT22;10015;52.530;13.390;2022-10-16T14:20:29;22.10;99.90
19728;DHT22;10015;52.530;13.390;2022-10-16T14:23:28;21.90;99.90
19728;DHT22;10015;52.530;13.390;2022-10-16T14:28:39;21.70;99.90
19728;DHT22;10015;52.530;13.390;2022-10-16T14:31:25;21.70;99.90
19728;DHT22;10015;52.530;13.390;2022-10-16T14:33:52;21.70;99.90
19728;DHT22;10015;52.530;13.390;2022-10-16T14:36:25;21.70;99.90
19728;DHT22;10015;52.530;13.390;2022-10-16T14:39:14;21.70;99.90
19728;DHT22;10015;52.530;13.390;2022-10-16T14:41:48;21.60;99.90
19728;DHT22;10015;52.530;13.390;2022-10-16T14:44:17;21.50;99.90
19728;DHT22;10015;52.530;13.390;2022-10-16T14:46:44;21.50;99.90
19728;DHT22;10015;52.530;13.390;2022-10-16T14:51:38;21.40;99.90
19728;DHT22;10015;52.530;13.390;2022-10-16T14:54:09;21.30;99.90
19728;DHT22;10015;52.530;13.390;2022-10-16T14:59:17;21.10;99.90
19728;DHT22;10015;52.530;13.390;2022-10-16T15:01:45;21.10;99.90
19728;DHT22;10015;52.530;13.390;2022-10-16T15:04:12;21.10;99.90
19728;DHT22;10015;52.530;13.390;2022-10-16T15:06:39;21.00;99.90
19728;DHT22;10015;52.530;13.390;2022-10-16T15:09:05;21.00;99.90
19728;DHT22;10015;52.530;13.390;2022-10-16T15:11:32;21.00;99.90
19728;DHT22;10015;52.530;13.390;2022-10-16T15:13:59;21.10;99.90
19728;DHT22;10015;52.530;13.390;2022-10-16T15:16:25;21.00;99.90
19728;DHT22;10015;52.530;13.390;2022-10-16T15:18:51;21.00;99.90
19728;DHT22;10015;52.530;13.390;2022-10-16T15:21:28;20.90;99.90
19728;DHT22;10015;52.530;13.390;2022-10-16T15:23:55;20.80;99.90
19728;DHT22;10015;52.530;13.390;2022-10-16T15:26:26;20.80;99.90
19728;DHT22;10015;52.530;13.390;2022-10-16T15:28:52;20.70;99.90
19728;DHT22;10015;52.530;13.390;2022-10-16T15:31:18;20.60;99.90
19728;DHT22;10015;52.530;13.390;2022-10-16T15:33:45;20.40;99.90
19728;DHT22;10015;52.530;13.390;2022-10-16T15:36:17;20.30;99.90
19728;DHT22;10015;52.530;13.390;2022-10-16T15:38:43;20.20;99.90
19728;DHT22;10015;52.530;13.390;2022-10-16T15:41:09;20.20;99.90
19728;DHT22;10015;52.530;13.390;2022-10-16T15:43:35;20.20;99.90
19728;DHT22;10015;52.530;13.390;2022-10-16T15:46:06;20.20;99.90
19728;DHT22;10015;52.530;13.390;2022-10-16T15:48:35;20.20;99.90
19728;DHT22;10015;52.530;13.390;2022-10-16T15:51:05;20.10;99.90
19728;DHT22;10015;52.530;13.390;2022-10-16T15:53:31;20.10;99.90
19728;DHT22;10015;52.530;13.390;2022-10-16T15:55:57;20.00;99.90
19728;DHT22;10015;52.530;13.390;2022-10-16T15:58:23;20.00;99.90
19728;DHT22;10015;52.530;13.390;2022-10-16T16:00:57;19.90;99.90
19728;DHT22;10015;52.530;13.390;2022-10-16T16:03:24;19.90;99.90
19728;DHT22;10015;52.530;13.390;2022-10-16T16:05:50;19.90;99.90
19728;DHT22;10015;52.530;13.390;2022-10-16T16:08:16;19.80;99.90
19728;DHT22;10015;52.530;13.390;2022-10-16T16:10:42;19.80;99.90
19728;DHT22;10015;52.530;13.390;2022-10-16T16:13:11;19.70;99.90
19728;DHT22;10015;52.530;13.390;2022-10-16T16:15:40;19.70;99.90
19728;DHT22;10015;52.530;13.390;2022-10-16T16:18:07;19.60;99.90
19728;DHT22;10015;52.530;13.390;2022-10-16T16:20:35;19.60;99.90
19728;DHT22;10015;52.530;13.390;2022-10-16T16:23:01;19.60;99.90
19728;DHT22;10015;52.530;13.390;2022-10-16T16:25:26;19.50;99.90
19728;DHT22;10015;52.530;13.390;2022-10-16T16:27:56;19.40;99.90
19728;DHT22;10015;52.530;13.390;2022-10-16T16:30:22;19.30;99.90
19728;DHT22;10015;52.530;13.390;2022-10-16T16:32:48;19.40;99.90
19728;DHT22;10015;52.530;13.390;2022-10-16T16:35:14;19.30;99.90
19728;DHT22;10015;52.530;13.390;2022-10-16T16:37:40;19.30;99.90
19728;DHT22;10015;52.530;13.390;2022-10-16T16:40:06;19.30;99.90
19728;DHT22;10015;52.530;13.390;2022-10-16T16:42:32;19.30;99.90
19728;DHT22;10015;52.530;13.390;2022-10-16T16:44:59;19.30;99.90
19728;DHT22;10015;52.530;13.390;2022-10-16T16:47:25;19.20;99.90
19728;DHT22;10015;52.530;13.390;2022-10-16T16:49:51;19.20;99.90
19728;DHT22;10015;52.530;13.390;2022-10-16T16:52:17;19.20;99.90
19728;DHT22;10015;52.530;13.390;2022-10-16T16:54:43;19.20;99.90
19728;DHT22;10015;52.530;13.390;2022-10-16T16:57:20;19.10;99.90
19728;DHT22;10015;52.530;13.390;2022-10-16T16:59:46;19.10;99.90
19728;DHT22;10015;52.530;13.390;2022-10-16T17:02:12;19.00;99.90
19728;DHT22;10015;52.530;13.390;2022-10-16T17:04:38;19.00;99.90
19728;DHT22;10015;52.530;13.390;2022-10-16T17:07:04;19.00;99.90
19728;DHT22;10015;52.530;13.390;2022-10-16T17:09:32;18.90;99.90
19728;DHT22;10015;52.530;13.390;2022-10-16T17:11:59;18.90;99.90
19728;DHT22;10015;52.530;13.390;2022-10-16T17:14:25;18.90;99.90
19728;DHT22;10015;52.530;13.390;2022-10-16T17:16:51;18.90;99.90
19728;DHT22;10015;52.530;13.390;2022-10-16T17:19:19;18.80;99.90
19728;DHT22;10015;52.530;13.390;2022-10-16T17:21:48;18.80;99.90
19728;DHT22;10015;52.530;13.390;2022-10-16T17:24:14;18.80;99.90
19728;DHT22;10015;52.530;13.390;2022-10-16T17:26:42;18.70;99.90
19728;DHT22;10015;52.530;13.390;2022-10-16T17:29:14;18.70;99.90
19728;DHT22;10015;52.530;13.390;2022-10-16T17:31:40;18.70;99.90
19728;DHT22;10015;52.530;13.390;2022-10-16T17:34:08;18.60;99.90
19728;DHT22;10015;52.530;13.390;2022-10-16T17:36:36;18.60;99.90
19728;DHT22;10015;52.530;13.390;2022-10-16T17:39:06;18.50;99.90
19728;DHT22;10015;52.530;13.390;2022-10-16T17:41:34;18.50;99.90
19728;DHT22;10015;52.530;13.390;2022-10-16T17:44:02;18.50;99.90
19728;DHT22;10015;52.530;13.390;2022-10-16T17:46:29;18.50;99.90
19728;DHT22;10015;52.530;13.390;2022-10-16T17:48:56;18.50;99.90
19728;DHT22;10015;52.530;13.390;2022-10-16T17:51:28;18.40;99.90
19728;DHT22;10015;52.530;13.390;2022-10-16T17:53:57;18.40;99.90
19728;DHT22;10015;52.530;13.390;2022-10-16T17:56:25;18.30;99.90
19728;DHT22;10015;52.530;13.390;2022-10-16T17:58:57;18.30;99.90
19728;DHT22;10015;52.530;13.390;2022-10-16T18:01:31;18.20;99.90
19728;DHT22;10015;52.530;13.390;2022-10-16T18:04:03;18.20;99.90
19728;DHT22;10015;52.530;13.390;2022-10-16T18:06:30;18.10;99.90
19728;DHT22;10015;52.530;13.390;2022-10-16T18:08:57;18.10;99.90
19728;DHT22;10015;52.530;13.390;2022-10-16T18:11:24;18.10;99.90
19728;DHT22;10015;52.530;13.390;2022-10-16T18:13:52;18.10;99.90
19728;DHT22;10015;52.530;13.390;2022-10-16T18:16:19;18.00;99.90
19728;DHT22;10015;52.530;13.390;2022-10-16T18:18:45;18.00;99.90
19728;DHT22;10015;52.530;13.390;2022-10-16T18:21:15;17.90;99.90
19728;DHT22;10015;52.530;13.390;2022-10-16T18:23:42;17.90;99.90
19728;DHT22;10015;52.530;13.390;2022-10-16T18:26:10;17.90;99.90
19728;DHT22;10015;52.530;13.390;2022-10-16T18:28:36;17.80;99.90
19728;DHT22;10015;52.530;13.390;2022-10-16T18:31:07;17.80;99.90
19728;DHT22;10015;52.530;13.390;2022-10-16T18:33:36;17.80;99.90
19728;DHT22;10015;52.530;13.390;2022-10-16T18:36:08;17.70;99.90
19728;DHT22;10015;52.530;13.390;2022-10-16T18:38:35;17.70;99.90
19728;DHT22;10015;52.530;13.390;2022-10-16T18:41:02;17.70;99.90
19728;DHT22;10015;52.530;13.390;2022-10-16T18:43:31;17.60;99.90
19728;DHT22;10015;52.530;13.390;2022-10-16T18:45:59;17.60;99.90
19728;DHT22;10015;52.530;13.390;2022-10-16T18:48:25;17.60;99.90
19728;DHT22;10015;52.530;13.390;2022-10-16T18:50:51;17.50;99.90
19728;DHT22;10015;52.530;13.390;2022-10-16T18:53:18;17.50;99.90
19728;DHT22;10015;52.530;13.390;2022-10-16T18:55:51;17.40;99.90
19728;DHT22;10015;52.530;13.390;2022-10-16T18:58:18;17.40;99.90
19728;DHT22;10015;52.530;13.390;2022-10-16T19:00:44;17.30;99.90
19728;DHT22;10015;52.530;13.390;2022-10-16T19:03:10;17.30;99.90
19728;DHT22;10015;52.530;13.390;2022-10-16T19:05:36;17.30;99.90
19728;DHT22;10015;52.530;13.390;2022-10-16T19:08:01;17.20;99.90
19728;DHT22;10015;52.530;13.390;2022-10-16T19:10:27;17.20;99.90
19728;DHT22;10015;52.530;13.390;2022-10-16T19:12:53;17.20;99.90
19728;DHT22;10015;52.530;13.390;2022-10-16T19:15:19;17.20;99.90
19728;DHT22;10015;52.530;13.390;2022-10-16T19:17:46;17.20;99.90
19728;DHT22;10015;52.530;13.390;2022-10-16T19:20:12;17.20;99.90
19728;DHT22;10015;52.530;13.390;2022-10-16T19:22:38;17.20;99.90
19728;DHT22;10015;52.530;13.390;2022-10-16T19:25:19;17.20;99.90
19728;DHT22;10015;52.530;13.390;2022-10-16T19:27:49;17.20;99.90
19728;DHT22;10015;52.530;13.390;2022-10-16T19:30:16;17.10;99.90
19728;DHT22;10015;52.530;13.390;2022-10-16T19:32:42;17.10;99.90
19728;DHT22;10015;52.530;13.390;2022-10-16T19:35:09;17.10;99.90
19728;DHT22;10015;52.530;13.390;2022-10-16T19:37:35;17.00;99.90
19728;DHT22;10015;52.530;13.390;2022-10-16T19:40:03;17.00;99.90
19728;DHT22;10015;52.530;13.390;2022-10-16T19:42:29;17.00;99.90
19728;DHT22;10015;52.530;13.390;2022-10-16T19:44:55;17.00;99.90
19728;DHT22;10015;52.530;13.390;2022-10-16T19:47:21;16.90;99.90
19728;DHT22;10015;52.530;13.390;2022-10-16T19:49:49;16.90;99.90
19728;DHT22;10015;52.530;13.390;2022-10-16T19:52:16;16.90;99.90
19728;DHT22;10015;52.530;13.390;2022-10-16T19:54:42;16.90;99.90
19728;DHT22;10015;52.530;13.390;2022-10-16T19:57:08;16.90;99.90
19728;DHT22;10015;52.530;13.390;2022-10-16T19:59:34;16.90;99.90
19728;DHT22;10015;52.530;13.390;2022-10-16T20:02:00;16.80;99.90
19728;DHT22;10015;52.530;13.390;2022-10-16T20:04:26;16.80;99.90
19728;DHT22;10015;52.530;13.390;2022-10-16T20:06:53;16.80;99.90
19728;DHT22;10015;52.530;13.390;2022-10-16T20:09:19;16.80;99.90
19728;DHT22;10015;52.530;13.390;2022-10-16T20:11:45;16.80;99.90
19728;DHT22;10015;52.530;13.390;2022-10-16T20:14:11;16.80;99.90
19728;DHT22;10015;52.530;13.390;2022-10-16T20:16:37;16.70;99.90
19728;DHT22;10015;52.530;13.390;2022-10-16T20:19:04;16.70;99.90
19728;DHT22;10015;52.530;13.390;2022-10-16T20:21:34;16.70;99.90
19728;DHT22;10015;52.530;13.390;2022-10-16T20:24:02;16.70;99.90
19728;DHT22;10015;52.530;13.390;2022-10-16T20:26:29;16.70;99.90
19728;DHT22;10015;52.530;13.390;2022-10-16T20:28:55;16.70;99.90
19728;DHT22;10015;52.530;13.390;2022-10-16T20:31:27;16.70;99.90
19728;DHT22;10015;52.530;13.390;2022-10-16T20:33:55;16.70;99.90
19728;DHT22;10015;52.530;13.390;2022-10-16T20:36:22;16.70;99.90
19728;DHT22;10015;52.530;13.390;2022-10-16T20:38:50;16.60;99.90
19728;DHT22;10015;52.530;13.390;2022-10-16T20:41:16;16.60;99.90
19728;DHT22;10015;52.530;13.390;2022-10-16T20:43:46;16.60;99.90
19728;DHT22;10015;52.530;13.390;2022-10-16T20:46:15;16.70;99.90
19728;DHT22;10015;52.530;13.390;2022-10-16T20:48:42;16.70;99.90
19728;DHT22;10015;52.530;13.390;2022-10-16T20:51:18;16.80;99.90
19728;DHT22;10015;52.530;13.390;2022-10-16T20:53:45;16.80;99.90
19728;DHT22;10015;52.530;13.390;2022-10-16T20:56:13;16.80;99.90
19728;DHT22;10015;52.530;13.390;2022-10-16T20:58:40;16.80;99.90
19728;DHT22;10015;52.530;13.390;2022-10-16T21:01:08;16.80;99.90
19728;DHT22;10015;52.530;13.390;2022-10-16T21:03:36;16.80;99.90
19728;DHT22;10015;52.530;13.390;2022-10-16T21:06:03;16.70;99.90
19728;DHT22;10015;52.530;13.390;2022-10-16T21:08:30;16.70;99.90
19728;DHT22;10015;52.530;13.390;2022-10-16T21:10:59;16.80;99.90
19728;DHT22;10015;52.530;13.390;2022-10-16T21:13:24;16.70;99.90
19728;DHT22;10015;52.530;13.390;2022-10-16T21:15:50;16.70;99.90
19728;DHT22;10015;52.530;13.390;2022-10-16T21:18:16;16.80;99.90
19728;DHT22;10015;52.530;13.390;2022-10-16T21:20:42;16.80;99.90
19728;DHT22;10015;52.530;13.390;2022-10-16T21:23:09;16.80;99.90
19728;DHT22;10015;52.530;13.390;2022-10-16T21:25:35;16.90;99.90
19728;DHT22;10015;52.530;13.390;2022-10-16T21:28:01;16.90;99.90
19728;DHT22;10015;52.530;13.390;2022-10-16T21:30:27;16.90;99.90
19728;DHT22;10015;52.530;13.390;2022-10-16T21:32:52;16.80;99.90
19728;DHT22;10015;52.530;13.390;2022-10-16T21:35:18;16.80;99.90
19728;DHT22;10015;52.530;13.390;2022-10-16T21:37:48;16.80;99.90
19728;DHT22;10015;52.530;13.390;2022-10-16T21:40:14;16.80;99.90
19728;DHT22;10015;52.530;13.390;2022-10-16T21:42:40;16.80;99.90
19728;DHT22;10015;52.530;13.390;2022-10-16T21:45:06;16.90;99.90
19728;DHT22;10015;52.530;13.390;2022-10-16T21:47:32;16.80;99.90
19728;DHT22;10015;52.530;13.390;2022-10-16T21:49:58;16.80;99.90
19728;DHT22;10015;52.530;13.390;2022-10-16T21:52:31;16.80;99.90
19728;DHT22;10015;52.530;13.390;2022-10-16T21:54:57;16.80;99.90
19728;DHT22;10015;52.530;13.390;2022-10-16T21:57:23;16.80;99.90
19728;DHT22;10015;52.530;13.390;2022-10-16T21:59:49;16.90;99.90
19728;DHT22;10015;52.530;13.390;2022-10-16T22:02:15;16.90;99.90
19728;DHT22;10015;52.530;13.390;2022-10-16T22:04:41;16.80;99.90
19728;DHT22;10015;52.530;13.390;2022-10-16T22:07:07;16.80;99.90
19728;DHT22;10015;52.530;13.390;2022-10-16T22:09:32;16.80;99.90
19728;DHT22;10015;52.530;13.390;2022-10-16T22:11:58;16.80;99.90
19728;DHT22;10015;52.530;13.390;2022-10-16T22:14:24;16.70;99.90
19728;DHT22;10015;52.530;13.390;2022-10-16T22:16:50;16.70;99.90
19728;DHT22;10015;52.530;13.390;2022-10-16T22:19:18;16.70;99.90
19728;DHT22;10015;52.530;13.390;2022-10-16T22:21:46;16.60;99.90
19728;DHT22;10015;52.530;13.390;2022-10-16T22:24:13;16.60;99.90
19728;DHT22;10015;52.530;13.390;2022-10-16T22:26:39;16.60;99.90
19728;DHT22;10015;52.530;13.390;2022-10-16T22:29:05;16.60;99.90
19728;DHT22;10015;52.530;13.390;2022-10-16T22:31:32;16.60;99.90
19728;DHT22;10015;52.530;13.390;2022-10-16T22:34:00;16.60;99.90
19728;DHT22;10015;52.530;13.390;2022-10-16T22:36:27;16.60;99.90
19728;DHT22;10015;52.530;13.390;2022-10-16T22:38:53;16.50;99.90
19728;DHT22;10015;52.530;13.390;2022-10-16T22:41:20;16.50;99.90
19728;DHT22;10015;52.530;13.390;2022-10-16T22:43:47;16.50;99.90
19728;DHT22;10015;52.530;13.390;2022-10-16T22:46:19;16.50;99.90
19728;DHT22;10015;52.530;13.390;2022-10-16T22:48:45;16.50;99.90
19728;DHT22;10015;52.530;13.390;2022-10-16T22:51:12;16.50;99.90
19728;DHT22;10015;52.530;13.390;2022-10-16T22:53:41;16.50;99.90
19728;DHT22;10015;52.530;13.390;2022-10-16T22:56:09;16.50;99.90
19728;DHT22;10015;52.530;13.390;2022-10-16T22:58:35;16.50;99.90
